createdAt,value
2022-10-30T00:00:23.408Z,33.47
2022-10-30T00:02:53.877Z,33.25
2022-10-30T00:07:54.526Z,30.85
2022-10-30T00:12:55.064Z,31.77
2022-10-30T00:15:25.520Z,32.20
2022-10-30T00:17:56.856Z,32.50
2022-10-30T00:20:27.805Z,32.33
2022-10-30T00:22:58.719Z,31.77
2022-10-30T00:25:29.286Z,35.42
2022-10-30T00:27:59.614Z,33.67
2022-10-30T00:30:29.967Z,32.22
2022-10-30T00:33:01.101Z,33.33
2022-10-30T00:35:32.074Z,33.50
2022-10-30T00:38:04.057Z,33.40
2022-10-30T00:40:34.816Z,35.35
2022-10-30T00:43:05.219Z,33.47
2022-10-30T00:45:35.587Z,35.42
2022-10-30T00:48:06.976Z,34.13
2022-10-30T00:50:40.404Z,35.28
2022-10-30T00:53:17.258Z,34.08
2022-10-30T00:55:54.776Z,35.58
2022-10-30T00:58:34.105Z,33.72
2022-10-30T01:01:10.458Z,35.03
2022-10-30T01:03:43.532Z,37.53
2022-10-30T01:06:15.836Z,33.60
2022-10-30T01:08:46.934Z,32.63
2022-10-30T01:11:17.194Z,30.65
2022-10-30T01:13:52.071Z,31.67
2022-10-30T01:16:47.381Z,34.17
2022-10-30T01:19:29.226Z,32.63
2022-10-30T01:22:32.080Z,36.95
2022-10-30T01:25:38.071Z,37.65
2022-10-30T01:28:38.192Z,34.88
2022-10-30T01:31:38.451Z,35.10
2022-10-30T01:34:23.892Z,37.00
2022-10-30T01:37:18.176Z,39.15
2022-10-30T01:39:48.476Z,38.78
2022-10-30T01:42:49.401Z,38.20
2022-10-30T01:45:39.253Z,41.75
2022-10-30T01:48:28.968Z,43.38
2022-10-30T01:51:15.099Z,42.90
2022-10-30T01:54:08.754Z,37.33
2022-10-30T01:56:59.209Z,35.00
2022-10-30T02:02:03.663Z,42.65
2022-10-30T02:04:35.633Z,39.70
2022-10-30T02:07:06.237Z,43.15
2022-10-30T02:09:36.898Z,44.05
2022-10-30T02:12:07.536Z,46.83
2022-10-30T02:14:42.247Z,45.83
2022-10-30T02:17:13.653Z,46.42
2022-10-30T02:19:45.041Z,48.50
2022-10-30T02:22:14.958Z,48.53
2022-10-30T02:24:44.756Z,48.38
2022-10-30T02:27:14.841Z,47.00
2022-10-30T02:29:44.815Z,50.33
2022-10-30T02:32:14.614Z,48.28
2022-10-30T02:34:45.761Z,52.10
2022-10-30T02:37:15.598Z,52.05
2022-10-30T02:39:45.428Z,50.08
2022-10-30T02:42:15.278Z,53.80
2022-10-30T02:44:45.205Z,45.40
2022-10-30T02:47:15.103Z,46.60
2022-10-30T02:49:45.151Z,47.60
2022-10-30T02:52:15.052Z,48.53
2022-10-30T02:54:44.902Z,45.08
2022-10-30T02:57:14.733Z,44.55
2022-10-30T02:59:44.519Z,51.30
2022-10-30T03:02:14.414Z,49.42
2022-10-30T03:04:46.327Z,47.88
2022-10-30T03:07:16.280Z,49.60
2022-10-30T03:09:46.210Z,51.97
2022-10-30T03:12:16.108Z,49.15
2022-10-30T03:14:46.018Z,50.10
2022-10-30T03:17:15.845Z,53.35
2022-10-30T03:19:45.785Z,52.22
2022-10-30T03:22:17.267Z,52.25
2022-10-30T03:24:47.138Z,52.45
2022-10-30T03:27:17.736Z,52.08
2022-10-30T03:29:47.643Z,54.13
2022-10-30T03:32:17.525Z,54.88
2022-10-30T03:34:47.627Z,54.53
2022-10-30T03:37:17.441Z,56.45
2022-10-30T03:39:47.958Z,56.65
2022-10-30T03:42:18.750Z,54.75
2022-10-30T03:44:48.671Z,53.35
2022-10-30T03:47:18.690Z,56.83
2022-10-30T03:49:48.596Z,57.65
2022-10-30T03:52:18.455Z,57.03
2022-10-30T03:54:48.502Z,57.25
2022-10-30T03:57:18.402Z,62.65
2022-10-30T03:59:48.272Z,60.28
2022-10-30T04:04:47.828Z,58.47
2022-10-30T04:07:18.055Z,60.22
2022-10-30T04:12:17.429Z,60.38
2022-10-30T04:14:47.241Z,60.30
2022-10-30T04:17:17.150Z,62.60
2022-10-30T04:19:46.984Z,61.80
2022-10-30T04:22:16.885Z,59.53
2022-10-30T04:24:47.019Z,61.03
2022-10-30T04:27:17.344Z,61.60
2022-10-30T04:29:47.241Z,61.15
2022-10-30T04:32:17.523Z,58.85
2022-10-30T04:34:47.323Z,57.13
2022-10-30T04:37:17.401Z,57.63
2022-10-30T04:39:48.643Z,62.47
2022-10-30T04:42:21.434Z,57.72
2022-10-30T04:44:51.268Z,60.70
2022-10-30T04:47:21.262Z,56.92
2022-10-30T04:52:20.509Z,49.75
2022-10-30T04:54:50.471Z,54.95
2022-10-30T04:57:20.480Z,55.95
2022-10-30T04:59:50.427Z,50.90
2022-10-30T05:02:23.407Z,44.25
2022-10-30T05:04:53.592Z,42.00
2022-10-30T05:07:23.565Z,44.10
2022-10-30T05:09:54.256Z,46.67
2022-10-30T05:12:24.109Z,46.85
2022-10-30T05:14:53.895Z,44.70
2022-10-30T05:17:23.822Z,48.00
2022-10-30T05:19:53.724Z,48.75
2022-10-30T05:22:23.576Z,45.15
2022-10-30T05:24:54.188Z,45.28
2022-10-30T05:27:23.957Z,39.63
2022-10-30T05:29:53.846Z,40.20
2022-10-30T05:32:23.937Z,41.90
2022-10-30T05:37:23.098Z,36.10
2022-10-30T05:39:53.015Z,35.22
2022-10-30T05:42:22.849Z,37.00
2022-10-30T05:45:00.896Z,35.35
2022-10-30T05:47:31.993Z,34.08
2022-10-30T05:50:01.900Z,31.10
2022-10-30T05:52:31.693Z,31.08
2022-10-30T05:55:01.683Z,33.03
2022-10-30T06:00:01.666Z,29.00
2022-10-30T06:02:31.704Z,27.48
2022-10-30T06:05:01.662Z,29.42
2022-10-30T06:07:31.551Z,27.75
2022-10-30T06:10:01.716Z,29.75
2022-10-30T06:12:31.619Z,23.27
2022-10-30T06:15:01.494Z,25.00
2022-10-30T06:17:33.727Z,25.30
2022-10-30T06:20:03.762Z,20.75
2022-10-30T06:25:02.863Z,19.25
2022-10-30T06:27:33.132Z,22.02
2022-10-30T06:30:03.185Z,17.77
2022-10-30T06:32:33.089Z,18.52
2022-10-30T06:37:32.236Z,17.02
2022-10-30T06:40:02.139Z,15.68
2022-10-30T06:45:01.316Z,16.13
2022-10-30T06:47:31.193Z,14.48
2022-10-30T06:50:01.055Z,17.88
2022-10-30T06:52:30.863Z,16.90
2022-10-30T06:55:00.805Z,17.88
2022-10-30T07:00:00.408Z,18.40
2022-10-30T07:02:30.402Z,18.98
2022-10-30T07:07:29.680Z,19.58
2022-10-30T07:12:29.092Z,17.85
2022-10-30T07:14:58.953Z,22.23
2022-10-30T07:19:58.116Z,21.90
2022-10-30T07:24:57.126Z,18.80
2022-10-30T07:27:27.359Z,20.20
2022-10-30T07:29:57.215Z,19.55
2022-10-30T07:34:56.470Z,18.90
2022-10-30T07:39:55.650Z,24.13
2022-10-30T07:47:25.432Z,21.00
2022-10-30T07:49:55.374Z,22.58
2022-10-30T07:54:54.561Z,21.73
2022-10-30T07:59:55.990Z,20.30
2022-10-30T08:02:28.795Z,20.05
2022-10-30T08:04:59.170Z,20.48
2022-10-30T08:07:38.495Z,19.10
2022-10-30T08:10:10.156Z,20.65
2022-10-30T08:12:46.196Z,20.35
2022-10-30T08:15:16.753Z,20.55
2022-10-30T08:17:49.564Z,20.75
2022-10-30T08:20:23.695Z,17.83
2022-10-30T08:22:57.193Z,18.98
2022-10-30T08:25:30.450Z,20.13
2022-10-30T08:28:04.544Z,18.27
2022-10-30T08:30:37.771Z,19.00
2022-10-30T08:33:10.800Z,17.45
2022-10-30T08:35:41.021Z,17.95
2022-10-30T08:38:11.395Z,18.42
2022-10-30T08:40:41.710Z,17.45
2022-10-30T08:43:12.509Z,16.80
2022-10-30T08:45:44.049Z,17.35
2022-10-30T08:48:17.092Z,14.43
2022-10-30T08:50:47.486Z,19.33
2022-10-30T08:53:18.474Z,16.60
2022-10-30T08:55:48.364Z,17.33
2022-10-30T08:58:18.211Z,17.42
2022-10-30T09:00:48.606Z,18.40
2022-10-30T09:03:18.436Z,17.50
2022-10-30T09:05:48.254Z,16.05
2022-10-30T09:08:18.623Z,15.95
2022-10-30T09:10:48.401Z,15.95
2022-10-30T09:13:18.189Z,14.95
2022-10-30T09:15:48.284Z,15.98
2022-10-30T09:18:18.204Z,15.20
2022-10-30T09:23:17.563Z,17.27
2022-10-30T09:25:47.501Z,15.75
2022-10-30T09:30:46.765Z,16.15
2022-10-30T09:35:45.777Z,17.10
2022-10-30T09:38:15.639Z,21.20
2022-10-30T09:41:15.526Z,18.05
2022-10-30T09:44:15.436Z,22.98
2022-10-30T09:47:03.493Z,22.33
2022-10-30T09:50:03.091Z,21.50
2022-10-30T09:52:57.650Z,20.17
2022-10-30T09:55:57.884Z,18.95
2022-10-30T10:01:20.666Z,18.50
2022-10-30T10:04:28.369Z,17.08
2022-10-30T10:07:11.680Z,19.63
2022-10-30T10:09:43.682Z,18.25
2022-10-30T10:12:20.924Z,19.33
2022-10-30T10:14:51.603Z,21.70
2022-10-30T10:17:31.990Z,18.00
2022-10-30T10:20:03.820Z,21.77
2022-10-30T10:22:45.469Z,18.98
2022-10-30T10:25:17.835Z,18.95
2022-10-30T10:28:19.770Z,19.23
2022-10-30T10:31:09.880Z,20.45
2022-10-30T10:33:57.678Z,19.67
2022-10-30T10:36:49.510Z,20.80
2022-10-30T10:39:45.587Z,22.77
2022-10-30T10:42:40.677Z,22.98
2022-10-30T10:45:41.102Z,22.52
2022-10-30T10:48:33.480Z,22.88
2022-10-30T10:51:17.724Z,22.73
2022-10-30T10:54:04.912Z,20.98
2022-10-30T10:56:39.981Z,22.30
2022-10-30T10:59:19.753Z,22.55
2022-10-30T11:02:02.449Z,21.08
2022-10-30T11:04:43.314Z,23.10
2022-10-30T11:07:24.895Z,22.95
2022-10-30T11:09:56.456Z,24.33
2022-10-30T11:12:35.372Z,23.33
2022-10-30T11:15:22.280Z,23.33
2022-10-30T11:20:58.153Z,24.27
2022-10-30T11:23:42.010Z,28.05
2022-10-30T11:26:31.615Z,29.13
2022-10-30T11:29:21.614Z,27.35
2022-10-30T11:32:04.466Z,25.83
2022-10-30T11:34:40.790Z,29.10
2022-10-30T11:37:34.316Z,27.90
2022-10-30T11:40:22.468Z,33.42
2022-10-30T11:43:03.587Z,38.33
2022-10-30T11:45:39.972Z,36.95
2022-10-30T11:48:23.233Z,36.85
2022-10-30T11:50:54.399Z,35.63
2022-10-30T11:53:32.818Z,37.42
2022-10-30T11:56:07.836Z,37.83
2022-10-30T11:58:44.418Z,45.33
2022-10-30T12:01:27.861Z,48.65
2022-10-30T12:03:58.995Z,41.38
2022-10-30T12:06:31.983Z,44.17
2022-10-30T12:09:13.432Z,44.13
2022-10-30T12:11:46.501Z,40.45
2022-10-30T12:14:25.715Z,38.78
2022-10-30T12:16:58.802Z,40.03
2022-10-30T12:19:28.979Z,36.95
2022-10-30T12:27:16.850Z,31.98
2022-10-30T12:30:11.055Z,30.95
2022-10-30T12:32:53.890Z,32.63
2022-10-30T12:35:55.320Z,39.30
2022-10-30T12:38:35.209Z,34.53
2022-10-30T12:41:20.868Z,42.90
2022-10-30T12:44:01.744Z,36.25
2022-10-30T12:46:55.627Z,42.47
2022-10-30T12:49:38.917Z,33.45
2022-10-30T12:52:31.068Z,34.95
2022-10-30T12:55:23.337Z,35.35
2022-10-30T12:58:08.922Z,44.08
2022-10-30T13:00:53.748Z,46.50
2022-10-30T13:03:46.373Z,52.42
2022-10-30T13:06:25.745Z,48.83
2022-10-30T13:09:22.274Z,47.92
2022-10-30T13:12:00.843Z,41.33
2022-10-30T13:14:49.805Z,42.53
2022-10-30T13:17:19.672Z,39.40
2022-10-30T13:19:50.514Z,34.45
2022-10-30T13:22:37.207Z,37.78
2022-10-30T13:25:40.726Z,38.10
2022-10-30T13:28:23.124Z,34.97
2022-10-30T13:31:19.855Z,32.90
2022-10-30T13:34:03.119Z,33.03
2022-10-30T13:37:03.118Z,35.50
2022-10-30T13:39:51.481Z,31.55
2022-10-30T13:42:39.568Z,39.05
2022-10-30T13:45:37.878Z,44.20
2022-10-30T13:48:32.328Z,52.35
2022-10-30T13:51:32.178Z,63.25
2022-10-30T13:54:22.376Z,60.92
2022-10-30T13:56:54.341Z,39.30
2022-10-30T13:59:54.598Z,37.00
2022-10-30T14:05:40.786Z,41.90
2022-10-30T14:08:40.300Z,44.38
2022-10-30T14:11:14.871Z,42.92
2022-10-30T14:13:57.896Z,39.30
2022-10-30T14:16:39.780Z,38.53
2022-10-30T14:19:12.109Z,39.88
2022-10-30T14:21:47.502Z,39.63
2022-10-30T14:24:35.371Z,42.10
2022-10-30T14:27:13.980Z,43.30
2022-10-30T14:29:50.273Z,41.03
2022-10-30T14:32:40.674Z,32.47
2022-10-30T14:35:35.662Z,41.55
2022-10-30T14:38:26.705Z,38.47
2022-10-30T14:41:27.570Z,36.92
2022-10-30T14:44:22.792Z,33.90
2022-10-30T14:47:25.877Z,31.08
2022-10-30T14:50:06.987Z,32.10
2022-10-30T14:52:55.992Z,32.05
2022-10-30T14:55:50.758Z,34.50
2022-10-30T14:58:30.292Z,35.53
2022-10-30T15:01:34.227Z,35.83
2022-10-30T15:04:36.968Z,38.92
2022-10-30T15:07:29.740Z,41.28
2022-10-30T15:10:12.459Z,43.20
2022-10-30T15:13:17.640Z,39.05
2022-10-30T15:15:49.152Z,39.50
2022-10-30T15:18:24.604Z,36.22
2022-10-30T15:20:59.130Z,34.78
2022-10-30T15:23:35.270Z,35.88
2022-10-30T15:26:10.257Z,33.78
2022-10-30T15:28:42.284Z,35.55
2022-10-30T15:31:29.376Z,32.40
2022-10-30T15:34:00.380Z,30.55
2022-10-30T15:36:48.181Z,26.92
2022-10-30T15:39:21.943Z,28.50
2022-10-30T15:42:00.563Z,25.88
2022-10-30T15:44:33.769Z,28.85
2022-10-30T15:47:06.768Z,28.23
2022-10-30T15:49:39.617Z,29.98
2022-10-30T15:52:25.547Z,32.67
2022-10-30T15:55:00.466Z,32.72
2022-10-30T15:58:01.508Z,32.33
2022-10-30T16:00:33.541Z,29.92
2022-10-30T16:03:23.257Z,32.42
2022-10-30T16:05:53.820Z,31.15
2022-10-30T16:08:26.705Z,32.50
2022-10-30T16:10:58.588Z,31.90
2022-10-30T16:13:33.284Z,33.03
2022-10-30T16:16:05.788Z,34.17
2022-10-30T16:18:38.239Z,33.65
2022-10-30T16:21:13.112Z,30.98
2022-10-30T16:23:49.003Z,31.38
2022-10-30T16:26:31.995Z,27.98
2022-10-30T16:29:26.865Z,29.42
2022-10-30T16:31:58.343Z,31.35
2022-10-30T16:34:37.163Z,30.25
2022-10-30T16:37:09.260Z,26.92
2022-10-30T16:39:40.856Z,30.52
2022-10-30T16:42:27.787Z,28.55
2022-10-30T16:45:37.085Z,31.30
2022-10-30T16:48:23.511Z,27.42
2022-10-30T16:50:53.839Z,28.80
2022-10-30T16:55:58.221Z,27.10
2022-10-30T16:58:32.701Z,27.45
2022-10-30T17:01:08.838Z,26.60
2022-10-30T17:03:43.674Z,26.02
2022-10-30T17:06:42.480Z,25.70
2022-10-30T17:09:29.568Z,23.33
2022-10-30T17:12:18.144Z,23.95
2022-10-30T17:14:56.652Z,24.17
2022-10-30T17:17:31.577Z,23.15
2022-10-30T17:20:05.640Z,25.63
2022-10-30T17:22:36.577Z,24.38
2022-10-30T17:25:33.154Z,24.55
2022-10-30T17:28:03.454Z,25.38
2022-10-30T17:33:38.699Z,23.45
2022-10-30T17:36:10.506Z,23.55
2022-10-30T17:38:41.255Z,22.90
2022-10-30T17:41:19.773Z,21.27
2022-10-30T17:43:54.779Z,23.02
2022-10-30T17:46:27.008Z,19.92
2022-10-30T17:48:57.546Z,22.75
2022-10-30T17:51:29.085Z,21.65
2022-10-30T17:53:59.431Z,20.80
2022-10-30T17:59:03.019Z,21.33
2022-10-30T18:04:03.834Z,26.33
2022-10-30T18:06:34.249Z,23.17
2022-10-30T18:11:34.535Z,26.90
2022-10-30T18:16:35.605Z,24.88
2022-10-30T18:19:05.886Z,26.35
2022-10-30T18:21:36.123Z,25.55
2022-10-30T18:24:11.799Z,24.67
2022-10-30T18:26:42.628Z,24.05
2022-10-30T18:29:13.977Z,24.20
2022-10-30T18:31:44.343Z,24.17
2022-10-30T18:34:21.719Z,25.98
2022-10-30T18:36:52.953Z,28.08
2022-10-30T18:39:23.411Z,23.52
2022-10-30T18:41:55.932Z,24.40
2022-10-30T18:44:26.165Z,24.25
2022-10-30T18:47:01.625Z,27.02
2022-10-30T18:49:35.445Z,23.92
2022-10-30T18:52:05.707Z,25.55
2022-10-30T18:54:35.941Z,23.27
2022-10-30T18:57:07.183Z,24.42
2022-10-30T18:59:37.411Z,24.42
2022-10-30T19:02:23.068Z,22.65
2022-10-30T19:04:53.487Z,24.20
2022-10-30T19:07:23.744Z,24.08
2022-10-30T19:09:54.194Z,21.27
2022-10-30T19:14:54.525Z,22.80
2022-10-30T19:17:24.840Z,23.23
2022-10-30T19:19:55.125Z,24.75
2022-10-30T19:22:25.513Z,24.15
2022-10-30T19:27:26.513Z,26.40
2022-10-30T19:29:56.774Z,22.63
2022-10-30T19:32:27.057Z,26.42
2022-10-30T19:34:57.367Z,26.70
2022-10-30T19:37:27.705Z,26.67
2022-10-30T19:39:57.936Z,25.38
2022-10-30T19:42:28.266Z,25.40
2022-10-30T19:44:58.535Z,24.08
2022-10-30T19:47:28.742Z,23.73
2022-10-30T19:49:58.994Z,24.52
2022-10-30T19:52:29.537Z,21.33
2022-10-30T19:54:59.787Z,22.23
2022-10-30T19:57:30.160Z,22.15
2022-10-30T20:00:00.361Z,23.17
2022-10-30T20:02:30.764Z,22.33
2022-10-30T20:07:30.671Z,21.87
2022-10-30T20:10:00.897Z,21.73
2022-10-30T20:12:31.107Z,23.33
2022-10-30T20:15:01.414Z,23.05
2022-10-30T20:17:31.638Z,22.02
2022-10-30T20:20:01.921Z,22.30
2022-10-30T20:22:32.140Z,24.35
2022-10-30T20:25:02.369Z,24.80
2022-10-30T20:27:32.913Z,25.83
2022-10-30T20:32:32.899Z,25.70
2022-10-30T20:35:07.454Z,26.40
2022-10-30T20:37:42.009Z,24.05
2022-10-30T20:40:18.427Z,24.80
2022-10-30T20:45:22.143Z,24.05
2022-10-30T20:47:52.945Z,24.63
2022-10-30T20:50:23.960Z,25.17
2022-10-30T20:52:55.436Z,26.50
2022-10-30T20:55:25.807Z,26.58
2022-10-30T20:57:56.800Z,25.02
2022-10-30T21:00:27.225Z,25.30
2022-10-30T21:02:57.650Z,24.13
2022-10-30T21:08:16.587Z,24.90
2022-10-30T21:10:46.857Z,24.20
2022-10-30T21:13:17.068Z,23.98
2022-10-30T21:15:47.785Z,25.05
2022-10-30T21:18:18.313Z,25.05
2022-10-30T21:23:18.770Z,23.10
2022-10-30T21:25:49.160Z,26.63
2022-10-30T21:28:19.403Z,23.40
2022-10-30T21:30:49.622Z,25.67
2022-10-30T21:33:20.087Z,25.15
2022-10-30T21:38:19.989Z,23.92
2022-10-30T21:40:58.992Z,25.55
2022-10-30T21:43:29.190Z,26.60
2022-10-30T21:45:59.369Z,26.05
2022-10-30T21:48:30.207Z,25.83
2022-10-30T21:51:09.090Z,26.92
2022-10-30T21:53:39.820Z,23.83
2022-10-30T21:56:15.743Z,25.17
2022-10-30T21:58:46.534Z,25.48
2022-10-30T22:01:24.344Z,22.65
2022-10-30T22:03:55.111Z,27.02
2022-10-30T22:06:26.099Z,26.05
2022-10-30T22:08:58.368Z,21.30
2022-10-30T22:11:31.328Z,22.27
2022-10-30T22:14:04.066Z,21.88
2022-10-30T22:16:36.837Z,22.83
2022-10-30T22:19:08.952Z,21.35
2022-10-30T22:21:39.479Z,22.00
2022-10-30T22:26:39.667Z,21.92
2022-10-30T22:29:10.099Z,23.27
2022-10-30T22:31:40.426Z,21.33
2022-10-30T22:34:10.731Z,23.25
2022-10-30T22:36:41.275Z,20.77
2022-10-30T22:41:45.120Z,22.63
2022-10-30T22:44:19.328Z,23.08
2022-10-30T22:46:49.748Z,22.50
2022-10-30T22:49:19.996Z,23.42
2022-10-30T22:51:50.258Z,25.88
2022-10-30T22:54:20.598Z,23.63
2022-10-30T22:56:50.825Z,25.42
2022-10-30T22:59:21.191Z,24.40
2022-10-30T23:01:51.800Z,25.25
2022-10-30T23:04:22.097Z,23.88
2022-10-30T23:06:52.491Z,24.80
2022-10-30T23:09:24.194Z,25.83
2022-10-30T23:11:54.676Z,29.73
2022-10-30T23:14:25.058Z,29.55
2022-10-30T23:16:56.544Z,28.80
2022-10-30T23:19:28.000Z,29.30
2022-10-30T23:22:01.316Z,31.88
2022-10-30T23:24:31.652Z,35.92
2022-10-30T23:27:02.018Z,27.33
2022-10-30T23:29:32.370Z,27.65
2022-10-30T23:32:02.731Z,28.20
2022-10-30T23:34:32.963Z,30.00
2022-10-30T23:37:03.397Z,27.92
2022-10-30T23:39:33.743Z,26.27
2022-10-30T23:42:04.071Z,27.23
2022-10-30T23:44:34.757Z,25.65
2022-10-30T23:47:05.101Z,26.88
2022-10-30T23:49:35.755Z,26.85
2022-10-30T23:54:35.764Z,28.63
2022-10-30T23:57:06.591Z,26.58
2022-10-30T23:59:36.953Z,26.73
